Flight Track Log - Related Links

Times and Time Zones

All times are in EDT time to prevent confusion due to time zone crossing. See the DAL1578 flight status page for this flight to view local times or setup timezone preferences in your user account.

Time Position Orientation Groundspeed Altitude Reporting Facility
EDT Latitude Longitude Course Direction KTS MPH feet Rate Location/Type
Thu 09:31:24 AM 33.9333 -118.4500 90° East 189 217 2,300  Level Southern TRACON
Thu 09:31:48 AM 33.9114 -118.4700 217° Southwest 212 244 3,000 2,612 Climbing Los Center
Thu 09:32:49 AM 33.8531 -118.5186 215° Southwest 267 307 6,000 3,098 Climbing Los Center
Thu 09:33:00 AM 33.7558 -118.6077 132° Southeast  Level FlightAware
Thu 09:33:50 AM 33.7742 -118.5219 182° South 284 327 9,300  Level Los Center
Thu 09:34:00 AM 33.6785 -118.4877 101° East  Level FlightAware
Thu 09:34:51 AM 33.6917 -118.5083 172° South 315 362 11,300  Level Los Center
Thu 09:35:00 AM 33.6367 -118.3418 116° Southeast  Level FlightAware
Thu 09:35:53 AM 33.6556 -118.4058 113° Southeast 347 399 14,100  Level Los Center
Thu 09:36:00 AM 33.6333 -118.1873 90° East  Level FlightAware
Thu 09:36:54 AM 33.6444 -118.2589 95° East 402 463 16,200  Level Los Center
Thu 09:37:55 AM 33.6894 -118.1369 66° East 436 502 18,200 2,049 Climbing Los Center
Thu 09:38:57 AM 33.7853 -118.0525 36° Northeast 436 502 20,400 2,098 Climbing Los Center
Thu 09:39:58 AM 33.8856 -117.9628 37° Northeast 450 518 22,500 1,967 Climbing Los Center
Thu 09:40:59 AM 33.9869 -117.8703 37° Northeast 459 528 24,400 1,951 Climbing Los Center
Thu 09:42:01 AM 34.1086 -117.7519 39° Northeast 470 541 26,500 1,556 Climbing Los Center
Thu 09:43:14 AM 34.1986 -117.6294 48° Northeast 486 559 27,900 1,467 Climbing Los Center
Thu 09:44:16 AM 34.3086 -117.4800 48° Northeast 498 573 29,800 1,790 Climbing Los Center
Thu 09:45:18 AM 34.3892 -117.3689 49° Northeast 498 573 31,600 1,805 Climbing Los Center
Thu 09:46:19 AM 34.4953 -117.2242 48° Northeast 485 558 33,500 1,610 Climbing Los Center
Thu 09:47:21 AM 34.5833 -117.1011 49° Northeast 485 558 34,900 1,500 Climbing Los Center
Thu 09:48:23 AM 34.6719 -116.9803 48° Northeast 484 557 36,600 1,024 Climbing Los Center
Thu 09:49:24 AM 34.7575 -116.8608 49° Northeast 476 548 37,000 195 Climbing Los Center
Thu 09:50:26 AM 34.8431 -116.7403 49° Northeast 473 544 37,000  Level Los Center
Thu 09:51:28 AM 34.9292 -116.6208 49° Northeast 472 543 37,000  Level Los Center
Thu 09:52:29 AM 35.0378 -116.4794 47° Northeast 477 549 37,000  Level Los Center
Thu 09:53:31 AM 35.1317 -116.3631 45° Northeast 481 554 37,000  Level Los Center
Thu 09:54:33 AM 35.2236 -116.2453 46° Northeast 481 554 37,000  Level Los Center
Thu 09:55:34 AM 35.3169 -116.1292 45° Northeast 480 552 37,000  Level Los Center
Thu 09:56:36 AM 35.4089 -116.0125 46° Northeast 478 550 37,000  Level Los Center
Thu 09:57:38 AM 35.5011 -115.8969 46° Northeast 477 549 37,000  Level Los Center
Thu 09:58:39 AM 35.5997 -115.7736 45° Northeast 477 549 37,000  Level Los Center
Thu 09:59:41 AM 35.6967 -115.6644 42° Northeast 474 545 37,000  Level Los Center
Thu 10:00:43 AM 35.8272 -115.5597 33° Northeast 468 539 37,000  Level Los Center
Thu 10:01:45 AM 35.9361 -115.4708 33° Northeast 471 542 37,000  Level Los Center
Thu 10:02:46 AM 36.0428 -115.3839 33° Northeast 464 534 37,000  Level Los Center
Thu 10:03:48 AM 36.1511 -115.2944 34° Northeast 471 542 37,000  Level Los Center
Thu 10:04:50 AM 36.2594 -115.2042 34° Northeast 474 545 37,000  Level Los Center
Thu 10:05:52 AM 36.3889 -115.0925 35° Northeast 476 548 37,000  Level Los Center
Thu 10:06:53 AM 36.4986 -115.0006 34° Northeast 478 550 37,000  Level Los Center
Thu 10:08:07 AM 36.6078 -114.9061 35° Northeast 478 550 37,000 -574 Level Los Center
Thu 10:09:09 AM 36.7400 -114.7944 34° Northeast 478 550 35,700 -968 Descending Los Center
Thu 10:10:11 AM 36.8494 -114.7031 34° Northeast 483 556 35,000 -339 Descending Los Center
Thu 10:11:13 AM 36.9606 -114.6075 34° Northeast 483 556 35,000  Level Los Center
Thu 10:12:15 AM 37.0944 -114.4889 35° Northeast 483 556 35,000  Level Los Center
Thu 10:13:17 AM 37.2047 -114.3944 34° Northeast 481 554 35,000  Level Los Center
Thu 10:14:18 AM 37.3153 -114.2997 34° Northeast 481 554 35,000  Level Los Center
Thu 10:15:20 AM 37.4231 -114.2039 35° Northeast 481 554 35,000  Level Los Center
Thu 10:16:22 AM 37.5344 -114.1069 35° Northeast 483 556 35,000  Level Los Center
Thu 10:17:24 AM 37.6447 -114.0097 35° Northeast 483 556 35,000  Level Los Center
Thu 10:18:26 AM 37.7547 -113.9128 35° Northeast 481 554 35,000  Level Los Center
Thu 10:19:28 AM 37.8861 -113.7953 35° Northeast 479 551 35,000  Level Los Center
Thu 10:20:42 AM 38.0192 -113.6772 35° Northeast 484 557 35,000  Level Salt Center
Thu 10:21:44 AM 38.1306 -113.5775 35° Northeast 487 560 35,000  Level Salt Center
Thu 10:22:45 AM 38.2436 -113.4778 35° Northeast 490 564 35,000  Level Salt Center
Thu 10:23:47 AM 38.3531 -113.3781 36° Northeast 484 557 35,000  Level Salt Center
Thu 10:24:49 AM 38.4625 -113.2792 35° Northeast 480 552 35,000  Level Salt Center
Thu 10:25:50 AM 38.5731 -113.1792 35° Northeast 483 556 35,000 -439 Level Salt Center
Thu 10:26:52 AM 38.6825 -113.0797 35° Northeast 483 556 34,100 -1,113 Descending Salt Center
Thu 10:27:54 AM 38.8147 -112.9586 36° Northeast 485 558 32,700 -1,024 Descending Salt Center
Thu 10:28:55 AM 38.9247 -112.8578 35° Northeast 485 558 32,000 -341 Descending Salt Center
Thu 10:29:57 AM 39.0358 -112.7531 36° Northeast 493 567 32,000  Level Salt Center
Thu 10:30:59 AM 39.1483 -112.6489 36° Northeast 496 571 32,000  Level Salt Center
Thu 10:32:00 AM 39.2653 -112.5411 35° Northeast 493 567 32,000 -683 Level Salt Center
Thu 10:33:02 AM 39.3919 -112.4822 20° North 489 563 30,600 -2,371 Descending Salt Center
Thu 10:34:04 AM 39.5192 -112.4328 17° North 482 555 27,100 -3,024 Descending Salt Center
Thu 10:35:05 AM 39.6497 -112.3886 15° North 485 558 24,400 -2,732 Descending Salt Center
Thu 10:36:07 AM 39.7772 -112.3481 14° North 475 547 21,500 -2,952 Descending Salt Center
Thu 10:37:09 AM 39.9253 -112.2983 14° North 459 528 18,300 -3,039 Descending Salt Center
Thu 10:37:24 AM 39.9544 -112.2989 359° North 452 520 17,600 -1,258 Descending Salt Center
Thu 10:38:11 AM 40.0386 -112.2606 19° North 421 484 17,000 -1,190 Descending Salt Center
Thu 10:39:25 AM 40.1642 -112.2267 12° North 375 432 15,200 -976 Descending Salt Center
Thu 10:40:14 AM 40.2372 -112.1928 19° North 366 421 15,000 -108 Descending Salt Center
Thu 10:41:16 AM 40.3344 -112.1592 15° North 362 417 15,000  Level Salt Center
Thu 10:42:18 AM 40.4225 -112.1289 15° North 331 381 15,000 -339 Level Salt Center
Thu 10:43:20 AM 40.5114 -112.0989 14° North 329 379 14,300 -762 Descending Salt Center
Thu 10:44:24 AM 40.6136 -112.0817 North 288 331 13,400 -1,024 Descending Salt Center
Thu 10:45:23 AM 40.6817 -112.0825 359° North 257 296 12,200 -1,134 Descending Salt Center
Thu 10:46:31 AM 40.7536 -112.0936 353° North 237 273 11,000 -558 Descending Salt Center
Thu 10:47:32 AM 40.8133 -112.1017 354° North 214 246 11,000 -153 Level Salt Center
Thu 10:48:29 AM 40.8653 -112.1050 357° North 214 246 10,700 -756 Descending Salt Center
Thu 10:49:31 AM 40.9231 -112.1114 355° North 208 239 9,500 -1,113 Descending Salt Center
Thu 10:50:33 AM 40.9800 -112.1181 355° North 205 236 8,400 -726 Descending Salt Center
Thu 10:51:35 AM 41.0481 -112.1264 355° North 203 234 8,000 -195 Descending Salt Center
Thu 10:52:36 AM 41.0792 -112.0742 52° Northeast 209 241 8,000  Level Salt Center
Thu 10:53:38 AM 41.0431 -112.0289 137° Southeast 197 227 8,000  Level Salt Center
Thu 10:54:40 AM 40.9981 -112.0211 173° South 164 189 8,000 -435 Level Salt Center
Thu 10:55:42 AM 40.9569 -112.0167 175° South 150 173 7,100 -871 Descending Salt Center
Thu 10:56:44 AM 40.9158 -112.0122 175° South 148 170 6,200 -871 Descending Salt Center

Login

Don't have an account? Register now (free) for customized features, flight alerts, and more!